sensor_id;sensor_type;location;lat;lon;timestamp;temperature;humidity
14401;DHT22;7285;50.894;5.462;2023-03-01T00:01:15;-1.10;21.90
14401;DHT22;7285;50.894;5.462;2023-03-01T00:03:44;-1.10;74.90
14401;DHT22;7285;50.894;5.462;2023-03-01T00:06:11;-1.20;99.90
14401;DHT22;7285;50.894;5.462;2023-03-01T00:08:38;-1.40;99.90
14401;DHT22;7285;50.894;5.462;2023-03-01T00:11:07;-1.50;99.90
14401;DHT22;7285;50.894;5.462;2023-03-01T00:13:35;-1.50;99.90
14401;DHT22;7285;50.894;5.462;2023-03-01T00:16:03;-1.60;99.90
14401;DHT22;7285;50.894;5.462;2023-03-01T00:18:30;-1.70;99.90
14401;DHT22;7285;50.894;5.462;2023-03-01T00:20:59;-1.80;99.90
14401;DHT22;7285;50.894;5.462;2023-03-01T00:23:26;-1.70;99.90
14401;DHT22;7285;50.894;5.462;2023-03-01T00:25:54;-1.80;99.90
14401;DHT22;7285;50.894;5.462;2023-03-01T00:28:21;-1.80;99.90
14401;DHT22;7285;50.894;5.462;2023-03-01T00:30:48;-1.80;99.90
14401;DHT22;7285;50.894;5.462;2023-03-01T00:33:15;-1.80;1.00
14401;DHT22;7285;50.894;5.462;2023-03-01T00:35:42;-1.80;1.00
14401;DHT22;7285;50.894;5.462;2023-03-01T00:38:11;-1.80;1.00
14401;DHT22;7285;50.894;5.462;2023-03-01T00:40:38;-1.80;1.00
14401;DHT22;7285;50.894;5.462;2023-03-01T00:43:05;-1.90;1.00
14401;DHT22;7285;50.894;5.462;2023-03-01T00:45:33;-1.90;1.00
14401;DHT22;7285;50.894;5.462;2023-03-01T00:48:00;-2.00;1.00
14401;DHT22;7285;50.894;5.462;2023-03-01T00:50:27;-2.00;1.00
14401;DHT22;7285;50.894;5.462;2023-03-01T00:52:55;-2.00;1.00
14401;DHT22;7285;50.894;5.462;2023-03-01T00:55:24;-2.00;1.00
14401;DHT22;7285;50.894;5.462;2023-03-01T00:57:51;-2.00;1.00
14401;DHT22;7285;50.894;5.462;2023-03-01T01:00:19;-2.10;1.00
14401;DHT22;7285;50.894;5.462;2023-03-01T01:02:46;-2.10;1.00
14401;DHT22;7285;50.894;5.462;2023-03-01T01:05:13;-2.10;1.00
14401;DHT22;7285;50.894;5.462;2023-03-01T01:07:40;-2.10;1.00
14401;DHT22;7285;50.894;5.462;2023-03-01T01:10:09;-2.20;1.00
14401;DHT22;7285;50.894;5.462;2023-03-01T01:12:39;-2.20;1.00
14401;DHT22;7285;50.894;5.462;2023-03-01T01:15:07;-2.20;1.00
14401;DHT22;7285;50.894;5.462;2023-03-01T01:17:37;-2.30;1.00
14401;DHT22;7285;50.894;5.462;2023-03-01T01:20:05;-2.30;1.00
14401;DHT22;7285;50.894;5.462;2023-03-01T01:22:33;-2.40;1.00
14401;DHT22;7285;50.894;5.462;2023-03-01T01:25:00;-2.30;12.40
14401;DHT22;7285;50.894;5.462;2023-03-01T01:27:42;-2.30;35.10
14401;DHT22;7285;50.894;5.462;2023-03-01T01:30:10;-2.40;58.30
14401;DHT22;7285;50.894;5.462;2023-03-01T01:32:37;-2.40;99.90
14401;DHT22;7285;50.894;5.462;2023-03-01T01:35:04;-2.50;99.90
14401;DHT22;7285;50.894;5.462;2023-03-01T01:37:31;-2.50;99.90
14401;DHT22;7285;50.894;5.462;2023-03-01T01:39:59;-2.50;99.90
14401;DHT22;7285;50.894;5.462;2023-03-01T01:42:27;-2.60;99.90
14401;DHT22;7285;50.894;5.462;2023-03-01T01:45:27;-2.60;99.90
14401;DHT22;7285;50.894;5.462;2023-03-01T01:47:55;-2.70;99.90
14401;DHT22;7285;50.894;5.462;2023-03-01T01:50:24;-2.80;99.90
14401;DHT22;7285;50.894;5.462;2023-03-01T01:52:52;-2.80;99.90
14401;DHT22;7285;50.894;5.462;2023-03-01T01:55:22;-2.90;99.90
14401;DHT22;7285;50.894;5.462;2023-03-01T01:57:52;-2.90;99.90
14401;DHT22;7285;50.894;5.462;2023-03-01T02:00:22;-3.00;99.90
14401;DHT22;7285;50.894;5.462;2023-03-01T02:02:55;-3.00;99.90
14401;DHT22;7285;50.894;5.462;2023-03-01T02:05:29;-3.10;99.90
14401;DHT22;7285;50.894;5.462;2023-03-01T02:07:59;-3.00;1.00
14401;DHT22;7285;50.894;5.462;2023-03-01T02:10:30;-3.10;1.00
14401;DHT22;7285;50.894;5.462;2023-03-01T02:12:59;-3.10;1.00
14401;DHT22;7285;50.894;5.462;2023-03-01T02:15:26;-3.10;1.00
14401;DHT22;7285;50.894;5.462;2023-03-01T02:17:55;-3.20;1.00
14401;DHT22;7285;50.894;5.462;2023-03-01T02:20:27;-3.30;99.90
14401;DHT22;7285;50.894;5.462;2023-03-01T02:22:56;-3.30;1.00
14401;DHT22;7285;50.894;5.462;2023-03-01T02:25:32;-3.40;1.00
14401;DHT22;7285;50.894;5.462;2023-03-01T02:28:08;-3.50;1.00
14401;DHT22;7285;50.894;5.462;2023-03-01T02:30:39;-3.40;1.00
14401;DHT22;7285;50.894;5.462;2023-03-01T02:33:27;-3.50;1.00
14401;DHT22;7285;50.894;5.462;2023-03-01T02:35:54;-3.50;1.00
14401;DHT22;7285;50.894;5.462;2023-03-01T02:38:23;-3.50;1.00
14401;DHT22;7285;50.894;5.462;2023-03-01T02:40:51;-3.50;1.00
14401;DHT22;7285;50.894;5.462;2023-03-01T02:43:20;-3.50;1.00
14401;DHT22;7285;50.894;5.462;2023-03-01T02:45:50;-3.50;1.00
14401;DHT22;7285;50.894;5.462;2023-03-01T02:48:17;-3.60;31.50
14401;DHT22;7285;50.894;5.462;2023-03-01T02:50:53;-3.70;1.00
14401;DHT22;7285;50.894;5.462;2023-03-01T02:53:32;-3.70;1.00
14401;DHT22;7285;50.894;5.462;2023-03-01T02:56:02;-3.80;1.00
14401;DHT22;7285;50.894;5.462;2023-03-01T02:58:29;-3.80;92.20
14401;DHT22;7285;50.894;5.462;2023-03-01T03:00:58;-3.80;99.90
14401;DHT22;7285;50.894;5.462;2023-03-01T03:03:26;-3.90;99.90
14401;DHT22;7285;50.894;5.462;2023-03-01T03:05:53;-3.90;99.90
14401;DHT22;7285;50.894;5.462;2023-03-01T03:08:20;-4.00;99.90
14401;DHT22;7285;50.894;5.462;2023-03-01T03:10:49;-4.10;99.90
14401;DHT22;7285;50.894;5.462;2023-03-01T03:13:16;-4.00;1.00
14401;DHT22;7285;50.894;5.462;2023-03-01T03:15:44;-4.00;1.00
14401;DHT22;7285;50.894;5.462;2023-03-01T03:18:14;-4.00;1.00
14401;DHT22;7285;50.894;5.462;2023-03-01T03:20:43;-4.10;1.00
14401;DHT22;7285;50.894;5.462;2023-03-01T03:23:11;-4.10;1.00
14401;DHT22;7285;50.894;5.462;2023-03-01T03:25:38;-4.20;1.00
14401;DHT22;7285;50.894;5.462;2023-03-01T03:28:06;-4.20;1.00
14401;DHT22;7285;50.894;5.462;2023-03-01T03:30:37;-4.20;1.00
14401;DHT22;7285;50.894;5.462;2023-03-01T03:33:06;-4.20;1.00
14401;DHT22;7285;50.894;5.462;2023-03-01T03:35:39;-4.30;65.70
14401;DHT22;7285;50.894;5.462;2023-03-01T03:38:09;-4.30;99.90
14401;DHT22;7285;50.894;5.462;2023-03-01T03:40:42;-4.30;99.90
14401;DHT22;7285;50.894;5.462;2023-03-01T03:43:12;-4.30;99.90
14401;DHT22;7285;50.894;5.462;2023-03-01T03:45:40;-4.40;99.90
14401;DHT22;7285;50.894;5.462;2023-03-01T03:48:08;-4.40;99.90
14401;DHT22;7285;50.894;5.462;2023-03-01T03:50:38;-4.40;99.90
14401;DHT22;7285;50.894;5.462;2023-03-01T03:53:07;-4.50;99.90
14401;DHT22;7285;50.894;5.462;2023-03-01T03:55:34;-4.50;99.90
14401;DHT22;7285;50.894;5.462;2023-03-01T03:58:05;-4.50;1.00
14401;DHT22;7285;50.894;5.462;2023-03-01T04:00:34;-4.50;1.00
14401;DHT22;7285;50.894;5.462;2023-03-01T04:03:01;-4.60;1.00
14401;DHT22;7285;50.894;5.462;2023-03-01T04:05:29;-4.60;1.00
14401;DHT22;7285;50.894;5.462;2023-03-01T04:07:58;-4.60;1.00
14401;DHT22;7285;50.894;5.462;2023-03-01T04:10:28;-4.70;1.00
14401;DHT22;7285;50.894;5.462;2023-03-01T04:12:56;-4.70;1.00
14401;DHT22;7285;50.894;5.462;2023-03-01T04:15:24;-4.60;1.00
14401;DHT22;7285;50.894;5.462;2023-03-01T04:17:53;-4.60;1.00
14401;DHT22;7285;50.894;5.462;2023-03-01T04:20:23;-4.60;1.00
14401;DHT22;7285;50.894;5.462;2023-03-01T04:22:52;-4.60;94.60
14401;DHT22;7285;50.894;5.462;2023-03-01T04:25:21;-4.50;99.90
14401;DHT22;7285;50.894;5.462;2023-03-01T04:27:50;-4.40;99.90
14401;DHT22;7285;50.894;5.462;2023-03-01T04:30:17;-4.40;1.00
14401;DHT22;7285;50.894;5.462;2023-03-01T04:32:44;-4.40;1.00
14401;DHT22;7285;50.894;5.462;2023-03-01T04:35:11;-4.30;1.00
14401;DHT22;7285;50.894;5.462;2023-03-01T04:37:38;-4.30;1.00
14401;DHT22;7285;50.894;5.462;2023-03-01T04:40:08;-4.30;1.00
14401;DHT22;7285;50.894;5.462;2023-03-01T04:42:43;-4.40;1.00
14401;DHT22;7285;50.894;5.462;2023-03-01T04:45:10;-4.50;99.90
14401;DHT22;7285;50.894;5.462;2023-03-01T04:47:40;-4.50;99.90
14401;DHT22;7285;50.894;5.462;2023-03-01T04:50:09;-4.60;1.00
14401;DHT22;7285;50.894;5.462;2023-03-01T04:52:37;-4.70;1.00
14401;DHT22;7285;50.894;5.462;2023-03-01T04:55:04;-4.70;1.00
14401;DHT22;7285;50.894;5.462;2023-03-01T04:57:32;-4.70;1.00
14401;DHT22;7285;50.894;5.462;2023-03-01T05:00:01;-4.70;1.00
14401;DHT22;7285;50.894;5.462;2023-03-01T05:02:46;-4.70;99.90
14401;DHT22;7285;50.894;5.462;2023-03-01T05:05:14;-4.60;99.90
14401;DHT22;7285;50.894;5.462;2023-03-01T05:07:41;-4.70;99.90
14401;DHT22;7285;50.894;5.462;2023-03-01T05:10:09;-4.70;99.90
14401;DHT22;7285;50.894;5.462;2023-03-01T05:12:36;-4.80;99.90
14401;DHT22;7285;50.894;5.462;2023-03-01T05:15:06;-4.80;99.90
14401;DHT22;7285;50.894;5.462;2023-03-01T05:17:33;-4.80;99.90
14401;DHT22;7285;50.894;5.462;2023-03-01T05:20:00;-4.70;1.00
14401;DHT22;7285;50.894;5.462;2023-03-01T05:22:31;-4.70;1.00
14401;DHT22;7285;50.894;5.462;2023-03-01T05:24:58;-4.60;1.00
14401;DHT22;7285;50.894;5.462;2023-03-01T05:27:25;-4.50;99.90
14401;DHT22;7285;50.894;5.462;2023-03-01T05:29:52;-4.40;99.90
14401;DHT22;7285;50.894;5.462;2023-03-01T05:32:21;-4.30;1.00
14401;DHT22;7285;50.894;5.462;2023-03-01T05:34:50;-4.20;1.00
14401;DHT22;7285;50.894;5.462;2023-03-01T05:37:17;-4.10;1.00
14401;DHT22;7285;50.894;5.462;2023-03-01T05:39:45;-4.10;28.80
14401;DHT22;7285;50.894;5.462;2023-03-01T05:42:12;-4.10;1.00
14401;DHT22;7285;50.894;5.462;2023-03-01T05:44:39;-4.00;1.00
14401;DHT22;7285;50.894;5.462;2023-03-01T05:47:06;-4.00;1.00
14401;DHT22;7285;50.894;5.462;2023-03-01T05:49:34;-3.90;1.00
14401;DHT22;7285;50.894;5.462;2023-03-01T05:52:01;-3.90;1.00
14401;DHT22;7285;50.894;5.462;2023-03-01T05:54:28;-3.90;99.90
14401;DHT22;7285;50.894;5.462;2023-03-01T05:56:55;-4.00;50.00
14401;DHT22;7285;50.894;5.462;2023-03-01T05:59:22;-4.00;1.00
14401;DHT22;7285;50.894;5.462;2023-03-01T06:01:49;-3.90;75.60
14401;DHT22;7285;50.894;5.462;2023-03-01T06:04:16;-4.00;39.10
14401;DHT22;7285;50.894;5.462;2023-03-01T06:06:45;-3.90;1.00
14401;DHT22;7285;50.894;5.462;2023-03-01T06:09:12;-3.90;1.00
14401;DHT22;7285;50.894;5.462;2023-03-01T06:11:42;-3.90;1.00
14401;DHT22;7285;50.894;5.462;2023-03-01T06:14:10;-3.90;1.00
14401;DHT22;7285;50.894;5.462;2023-03-01T06:16:40;-3.90;1.00
14401;DHT22;7285;50.894;5.462;2023-03-01T06:19:07;-3.90;1.00
14401;DHT22;7285;50.894;5.462;2023-03-01T06:21:34;-4.00;1.00
14401;DHT22;7285;50.894;5.462;2023-03-01T06:24:02;-4.10;99.90
14401;DHT22;7285;50.894;5.462;2023-03-01T06:26:30;-4.20;99.90
14401;DHT22;7285;50.894;5.462;2023-03-01T06:28:57;-4.30;1.00
14401;DHT22;7285;50.894;5.462;2023-03-01T06:31:24;-4.40;1.00
14401;DHT22;7285;50.894;5.462;2023-03-01T06:33:51;-4.50;1.00
14401;DHT22;7285;50.894;5.462;2023-03-01T06:36:18;-4.60;1.00
14401;DHT22;7285;50.894;5.462;2023-03-01T06:38:46;-4.60;1.00
14401;DHT22;7285;50.894;5.462;2023-03-01T06:41:15;-4.70;1.00
14401;DHT22;7285;50.894;5.462;2023-03-01T06:43:49;-4.70;1.00
14401;DHT22;7285;50.894;5.462;2023-03-01T06:46:16;-4.60;27.70
14401;DHT22;7285;50.894;5.462;2023-03-01T06:48:54;-4.60;99.90
14401;DHT22;7285;50.894;5.462;2023-03-01T06:51:21;-4.60;99.90
14401;DHT22;7285;50.894;5.462;2023-03-01T06:53:48;-4.50;99.90
14401;DHT22;7285;50.894;5.462;2023-03-01T06:56:17;-4.50;1.00
14401;DHT22;7285;50.894;5.462;2023-03-01T06:58:44;-4.40;1.00
14401;DHT22;7285;50.894;5.462;2023-03-01T07:01:11;-4.30;1.00
14401;DHT22;7285;50.894;5.462;2023-03-01T07:03:38;-4.30;1.00
14401;DHT22;7285;50.894;5.462;2023-03-01T07:06:05;-4.20;1.00
14401;DHT22;7285;50.894;5.462;2023-03-01T07:08:32;-4.00;1.00
14401;DHT22;7285;50.894;5.462;2023-03-01T07:10:59;-3.90;99.90
14401;DHT22;7285;50.894;5.462;2023-03-01T07:13:29;-3.70;99.90
14401;DHT22;7285;50.894;5.462;2023-03-01T07:15:56;-3.60;99.90
14401;DHT22;7285;50.894;5.462;2023-03-01T07:18:23;-3.40;99.90
14401;DHT22;7285;50.894;5.462;2023-03-01T07:20:50;-3.30;99.90
14401;DHT22;7285;50.894;5.462;2023-03-01T07:23:17;-3.10;1.00
14401;DHT22;7285;50.894;5.462;2023-03-01T07:25:44;-3.00;1.00
14401;DHT22;7285;50.894;5.462;2023-03-01T07:28:17;-2.90;1.00
14401;DHT22;7285;50.894;5.462;2023-03-01T07:30:46;-2.70;99.90
14401;DHT22;7285;50.894;5.462;2023-03-01T07:33:16;-2.60;1.00
14401;DHT22;7285;50.894;5.462;2023-03-01T07:35:43;-2.50;1.00
14401;DHT22;7285;50.894;5.462;2023-03-01T07:38:10;-2.40;1.00
14401;DHT22;7285;50.894;5.462;2023-03-01T07:40:37;-2.20;99.90
14401;DHT22;7285;50.894;5.462;2023-03-01T07:43:04;-2.10;1.00
14401;DHT22;7285;50.894;5.462;2023-03-01T07:45:31;-2.00;1.00
14401;DHT22;7285;50.894;5.462;2023-03-01T07:47:59;-1.80;1.00
14401;DHT22;7285;50.894;5.462;2023-03-01T07:50:26;-1.70;99.90
14401;DHT22;7285;50.894;5.462;2023-03-01T07:52:53;-1.60;99.90
14401;DHT22;7285;50.894;5.462;2023-03-01T07:55:31;-1.40;82.40
14401;DHT22;7285;50.894;5.462;2023-03-01T07:57:58;-1.30;1.00
14401;DHT22;7285;50.894;5.462;2023-03-01T08:00:25;-1.20;1.00
14401;DHT22;7285;50.894;5.462;2023-03-01T08:02:52;-1.10;1.00
14401;DHT22;7285;50.894;5.462;2023-03-01T08:05:20;-1.00;1.00
14401;DHT22;7285;50.894;5.462;2023-03-01T08:07:47;-0.90;1.00
14401;DHT22;7285;50.894;5.462;2023-03-01T08:10:14;-0.70;99.90
14401;DHT22;7285;50.894;5.462;2023-03-01T08:12:42;-0.60;99.90
14401;DHT22;7285;50.894;5.462;2023-03-01T08:15:09;-0.50;99.90
14401;DHT22;7285;50.894;5.462;2023-03-01T08:17:37;-0.40;99.90
14401;DHT22;7285;50.894;5.462;2023-03-01T08:20:04;-0.30;45.00
14401;DHT22;7285;50.894;5.462;2023-03-01T08:22:34;-0.20;1.00
14401;DHT22;7285;50.894;5.462;2023-03-01T08:25:01;0.00;1.00
14401;DHT22;7285;50.894;5.462;2023-03-01T08:27:28;0.20;1.00
14401;DHT22;7285;50.894;5.462;2023-03-01T08:29:55;0.40;1.00
14401;DHT22;7285;50.894;5.462;2023-03-01T08:32:22;0.40;1.00
14401;DHT22;7285;50.894;5.462;2023-03-01T08:34:49;0.50;1.00
14401;DHT22;7285;50.894;5.462;2023-03-01T08:37:16;0.70;1.00
14401;DHT22;7285;50.894;5.462;2023-03-01T08:39:44;0.80;1.00
14401;DHT22;7285;50.894;5.462;2023-03-01T08:42:11;1.00;99.90
14401;DHT22;7285;50.894;5.462;2023-03-01T08:44:38;1.10;99.90
14401;DHT22;7285;50.894;5.462;2023-03-01T08:47:05;1.30;99.90
14401;DHT22;7285;50.894;5.462;2023-03-01T08:49:32;1.50;99.90
14401;DHT22;7285;50.894;5.462;2023-03-01T08:51:59;1.60;99.90
14401;DHT22;7285;50.894;5.462;2023-03-01T08:54:28;1.90;99.90
14401;DHT22;7285;50.894;5.462;2023-03-01T08:56:57;2.10;99.90
14401;DHT22;7285;50.894;5.462;2023-03-01T08:59:25;2.20;99.90
14401;DHT22;7285;50.894;5.462;2023-03-01T09:01:52;2.30;90.80
14401;DHT22;7285;50.894;5.462;2023-03-01T09:04:19;2.50;49.50
14401;DHT22;7285;50.894;5.462;2023-03-01T09:06:46;2.80;4.60
14401;DHT22;7285;50.894;5.462;2023-03-01T09:09:15;2.70;1.00
14401;DHT22;7285;50.894;5.462;2023-03-01T09:11:42;3.10;1.00
14401;DHT22;7285;50.894;5.462;2023-03-01T09:14:12;3.30;1.00
14401;DHT22;7285;50.894;5.462;2023-03-01T09:16:40;3.50;1.00
14401;DHT22;7285;50.894;5.462;2023-03-01T09:19:07;3.70;1.00
14401;DHT22;7285;50.894;5.462;2023-03-01T09:21:34;3.70;1.00
14401;DHT22;7285;50.894;5.462;2023-03-01T09:24:01;3.60;1.00
14401;DHT22;7285;50.894;5.462;2023-03-01T09:26:28;3.70;1.00
14401;DHT22;7285;50.894;5.462;2023-03-01T09:28:55;3.70;1.00
14401;DHT22;7285;50.894;5.462;2023-03-01T09:31:24;3.80;1.00
14401;DHT22;7285;50.894;5.462;2023-03-01T09:33:52;3.90;1.00
14401;DHT22;7285;50.894;5.462;2023-03-01T09:36:21;4.10;1.00
14401;DHT22;7285;50.894;5.462;2023-03-01T09:38:49;4.30;1.00
14401;DHT22;7285;50.894;5.462;2023-03-01T09:41:36;4.30;1.00
14401;DHT22;7285;50.894;5.462;2023-03-01T09:44:11;4.30;1.00
14401;DHT22;7285;50.894;5.462;2023-03-01T09:46:45;4.30;1.00
14401;DHT22;7285;50.894;5.462;2023-03-01T09:49:15;4.50;1.00
14401;DHT22;7285;50.894;5.462;2023-03-01T09:51:56;4.70;1.00
14401;DHT22;7285;50.894;5.462;2023-03-01T09:54:24;4.80;1.00
14401;DHT22;7285;50.894;5.462;2023-03-01T09:57:03;4.90;1.00
14401;DHT22;7285;50.894;5.462;2023-03-01T09:59:45;5.10;1.00
14401;DHT22;7285;50.894;5.462;2023-03-01T10:02:26;5.30;1.00
14401;DHT22;7285;50.894;5.462;2023-03-01T10:04:58;5.60;1.00
14401;DHT22;7285;50.894;5.462;2023-03-01T10:07:35;5.50;1.00
14401;DHT22;7285;50.894;5.462;2023-03-01T10:10:10;5.80;1.00
14401;DHT22;7285;50.894;5.462;2023-03-01T10:12:43;6.10;1.00
14401;DHT22;7285;50.894;5.462;2023-03-01T10:15:14;6.20;1.00
14401;DHT22;7285;50.894;5.462;2023-03-01T10:17:47;6.10;1.00
14401;DHT22;7285;50.894;5.462;2023-03-01T10:20:18;6.20;1.00
14401;DHT22;7285;50.894;5.462;2023-03-01T10:22:45;6.40;1.00
14401;DHT22;7285;50.894;5.462;2023-03-01T10:25:20;6.60;1.00
14401;DHT22;7285;50.894;5.462;2023-03-01T10:27:52;6.80;1.00
14401;DHT22;7285;50.894;5.462;2023-03-01T10:30:21;6.90;1.00
14401;DHT22;7285;50.894;5.462;2023-03-01T10:32:53;6.90;1.00
14401;DHT22;7285;50.894;5.462;2023-03-01T10:35:22;7.00;1.00
14401;DHT22;7285;50.894;5.462;2023-03-01T10:38:03;7.10;1.00
14401;DHT22;7285;50.894;5.462;2023-03-01T10:40:30;7.40;1.00
14401;DHT22;7285;50.894;5.462;2023-03-01T10:42:59;7.80;1.00
14401;DHT22;7285;50.894;5.462;2023-03-01T10:45:32;7.70;1.00
14401;DHT22;7285;50.894;5.462;2023-03-01T10:48:12;7.60;1.00
14401;DHT22;7285;50.894;5.462;2023-03-01T10:50:41;8.30;1.00
14401;DHT22;7285;50.894;5.462;2023-03-01T10:53:24;8.40;1.00
14401;DHT22;7285;50.894;5.462;2023-03-01T10:56:03;8.90;1.00
14401;DHT22;7285;50.894;5.462;2023-03-01T10:58:32;8.80;99.90
14401;DHT22;7285;50.894;5.462;2023-03-01T11:01:02;9.10;99.90
14401;DHT22;7285;50.894;5.462;2023-03-01T11:03:33;8.60;99.90
14401;DHT22;7285;50.894;5.462;2023-03-01T11:06:05;8.60;99.90
14401;DHT22;7285;50.894;5.462;2023-03-01T11:08:38;8.60;99.90
14401;DHT22;7285;50.894;5.462;2023-03-01T11:11:25;8.80;99.90
14401;DHT22;7285;50.894;5.462;2023-03-01T11:13:58;8.70;99.90
14401;DHT22;7285;50.894;5.462;2023-03-01T11:16:31;9.20;99.90
14401;DHT22;7285;50.894;5.462;2023-03-01T11:19:14;9.10;99.90
14401;DHT22;7285;50.894;5.462;2023-03-01T11:21:46;9.60;99.90
14401;DHT22;7285;50.894;5.462;2023-03-01T11:24:16;9.50;99.90
14401;DHT22;7285;50.894;5.462;2023-03-01T11:26:47;9.80;99.90
14401;DHT22;7285;50.894;5.462;2023-03-01T11:29:26;9.70;99.90
14401;DHT22;7285;50.894;5.462;2023-03-01T11:31:57;9.10;99.90
14401;DHT22;7285;50.894;5.462;2023-03-01T11:34:36;9.60;99.90
14401;DHT22;7285;50.894;5.462;2023-03-01T11:37:19;9.50;99.90
14401;DHT22;7285;50.894;5.462;2023-03-01T11:39:55;10.00;99.90
14401;DHT22;7285;50.894;5.462;2023-03-01T11:42:30;10.10;99.90
14401;DHT22;7285;50.894;5.462;2023-03-01T11:45:08;10.30;99.90
14401;DHT22;7285;50.894;5.462;2023-03-01T11:48:01;10.40;99.90
14401;DHT22;7285;50.894;5.462;2023-03-01T11:50:38;9.90;99.90
14401;DHT22;7285;50.894;5.462;2023-03-01T11:53:29;10.30;99.90
14401;DHT22;7285;50.894;5.462;2023-03-01T11:56:05;11.30;99.90
14401;DHT22;7285;50.894;5.462;2023-03-01T11:58:52;10.90;99.90
14401;DHT22;7285;50.894;5.462;2023-03-01T12:01:32;11.30;99.90
14401;DHT22;7285;50.894;5.462;2023-03-01T12:04:27;11.10;99.90
14401;DHT22;7285;50.894;5.462;2023-03-01T12:07:04;11.20;99.90
14401;DHT22;7285;50.894;5.462;2023-03-01T12:09:58;10.90;99.90
14401;DHT22;7285;50.894;5.462;2023-03-01T12:12:34;11.10;99.90
14401;DHT22;7285;50.894;5.462;2023-03-01T12:18:14;11.10;99.90
14401;DHT22;7285;50.894;5.462;2023-03-01T12:20:55;10.70;99.90
14401;DHT22;7285;50.894;5.462;2023-03-01T12:26:27;10.60;99.90
14401;DHT22;7285;50.894;5.462;2023-03-01T12:29:07;10.90;99.90
14401;DHT22;7285;50.894;5.462;2023-03-01T12:31:48;10.50;99.90
14401;DHT22;7285;50.894;5.462;2023-03-01T12:34:37;10.50;99.90
14401;DHT22;7285;50.894;5.462;2023-03-01T12:37:22;10.90;99.90
14401;DHT22;7285;50.894;5.462;2023-03-01T12:40:29;10.80;99.90
14401;DHT22;7285;50.894;5.462;2023-03-01T12:43:08;11.10;99.90
14401;DHT22;7285;50.894;5.462;2023-03-01T12:45:51;10.80;99.90
14401;DHT22;7285;50.894;5.462;2023-03-01T12:48:30;10.30;99.90
14401;DHT22;7285;50.894;5.462;2023-03-01T12:51:02;11.10;99.90
14401;DHT22;7285;50.894;5.462;2023-03-01T12:53:34;11.30;99.90
14401;DHT22;7285;50.894;5.462;2023-03-01T12:56:06;11.30;99.90
14401;DHT22;7285;50.894;5.462;2023-03-01T12:58:38;11.30;99.90
14401;DHT22;7285;50.894;5.462;2023-03-01T13:01:16;11.00;99.90
14401;DHT22;7285;50.894;5.462;2023-03-01T13:04:14;10.70;99.90
14401;DHT22;7285;50.894;5.462;2023-03-01T13:06:51;10.40;99.90
14401;DHT22;7285;50.894;5.462;2023-03-01T13:09:24;10.10;99.90
14401;DHT22;7285;50.894;5.462;2023-03-01T13:11:57;10.70;99.90
14401;DHT22;7285;50.894;5.462;2023-03-01T13:14:44;11.00;99.90
14401;DHT22;7285;50.894;5.462;2023-03-01T13:17:32;11.70;99.90
14401;DHT22;7285;50.894;5.462;2023-03-01T13:20:02;11.80;99.90
14401;DHT22;7285;50.894;5.462;2023-03-01T13:22:31;12.80;99.90
14401;DHT22;7285;50.894;5.462;2023-03-01T13:25:20;12.90;99.90
14401;DHT22;7285;50.894;5.462;2023-03-01T13:27:50;12.90;99.90
14401;DHT22;7285;50.894;5.462;2023-03-01T13:30:40;12.50;99.90
14401;DHT22;7285;50.894;5.462;2023-03-01T13:33:44;12.70;99.90
14401;DHT22;7285;50.894;5.462;2023-03-01T13:39:31;13.90;99.90
14401;DHT22;7285;50.894;5.462;2023-03-01T13:41:59;12.70;99.90
14401;DHT22;7285;50.894;5.462;2023-03-01T13:44:31;13.30;99.90
14401;DHT22;7285;50.894;5.462;2023-03-01T13:47:03;12.80;99.90
14401;DHT22;7285;50.894;5.462;2023-03-01T13:49:41;12.50;99.90
14401;DHT22;7285;50.894;5.462;2023-03-01T13:52:35;11.90;99.90
14401;DHT22;7285;50.894;5.462;2023-03-01T13:55:04;12.40;99.90
14401;DHT22;7285;50.894;5.462;2023-03-01T13:57:34;12.40;99.90
14401;DHT22;7285;50.894;5.462;2023-03-01T14:00:07;11.90;99.90
14401;DHT22;7285;50.894;5.462;2023-03-01T14:02:34;12.00;99.90
14401;DHT22;7285;50.894;5.462;2023-03-01T14:05:02;12.20;99.90
14401;DHT22;7285;50.894;5.462;2023-03-01T14:07:32;12.40;99.90
14401;DHT22;7285;50.894;5.462;2023-03-01T14:10:04;12.40;99.90
14401;DHT22;7285;50.894;5.462;2023-03-01T14:12:40;13.10;99.90
14401;DHT22;7285;50.894;5.462;2023-03-01T14:15:19;13.80;99.90
14401;DHT22;7285;50.894;5.462;2023-03-01T14:17:55;14.00;99.90
14401;DHT22;7285;50.894;5.462;2023-03-01T14:20:25;13.70;99.90
14401;DHT22;7285;50.894;5.462;2023-03-01T14:22:54;13.70;99.90
14401;DHT22;7285;50.894;5.462;2023-03-01T14:25:27;13.30;99.90
14401;DHT22;7285;50.894;5.462;2023-03-01T14:27:58;12.60;99.90
14401;DHT22;7285;50.894;5.462;2023-03-01T14:30:30;12.60;99.90
14401;DHT22;7285;50.894;5.462;2023-03-01T14:33:00;13.00;99.90
14401;DHT22;7285;50.894;5.462;2023-03-01T14:35:29;13.30;99.90
14401;DHT22;7285;50.894;5.462;2023-03-01T14:37:56;12.00;99.90
14401;DHT22;7285;50.894;5.462;2023-03-01T14:40:26;11.90;99.90
14401;DHT22;7285;50.894;5.462;2023-03-01T14:42:56;11.70;99.90
14401;DHT22;7285;50.894;5.462;2023-03-01T14:45:28;11.40;99.90
14401;DHT22;7285;50.894;5.462;2023-03-01T14:47:59;11.00;99.90
14401;DHT22;7285;50.894;5.462;2023-03-01T14:50:29;11.00;99.90
14401;DHT22;7285;50.894;5.462;2023-03-01T14:52:58;10.90;99.90
14401;DHT22;7285;50.894;5.462;2023-03-01T14:55:29;11.30;99.90
14401;DHT22;7285;50.894;5.462;2023-03-01T14:58:02;11.00;99.90
14401;DHT22;7285;50.894;5.462;2023-03-01T15:00:33;10.70;99.90
14401;DHT22;7285;50.894;5.462;2023-03-01T15:03:06;10.40;99.90
14401;DHT22;7285;50.894;5.462;2023-03-01T15:05:40;10.50;99.90
14401;DHT22;7285;50.894;5.462;2023-03-01T15:08:18;10.10;99.90
14401;DHT22;7285;50.894;5.462;2023-03-01T15:10:57;10.70;99.90
14401;DHT22;7285;50.894;5.462;2023-03-01T15:13:28;11.30;99.90
14401;DHT22;7285;50.894;5.462;2023-03-01T15:16:07;11.30;99.90
14401;DHT22;7285;50.894;5.462;2023-03-01T15:18:36;11.10;99.90
14401;DHT22;7285;50.894;5.462;2023-03-01T15:21:08;11.10;99.90
14401;DHT22;7285;50.894;5.462;2023-03-01T15:23:37;11.00;99.90
14401;DHT22;7285;50.894;5.462;2023-03-01T15:26:06;10.50;99.90
14401;DHT22;7285;50.894;5.462;2023-03-01T15:28:35;10.20;99.90
14401;DHT22;7285;50.894;5.462;2023-03-01T15:31:18;10.40;99.90
14401;DHT22;7285;50.894;5.462;2023-03-01T15:33:46;10.90;99.90
14401;DHT22;7285;50.894;5.462;2023-03-01T15:36:38;10.40;99.90
14401;DHT22;7285;50.894;5.462;2023-03-01T15:39:29;10.20;99.90
14401;DHT22;7285;50.894;5.462;2023-03-01T15:41:58;10.30;99.90
14401;DHT22;7285;50.894;5.462;2023-03-01T15:44:28;10.40;99.90
14401;DHT22;7285;50.894;5.462;2023-03-01T15:46:57;10.30;99.90
14401;DHT22;7285;50.894;5.462;2023-03-01T15:49:35;10.30;99.90
14401;DHT22;7285;50.894;5.462;2023-03-01T15:52:03;10.20;99.90
14401;DHT22;7285;50.894;5.462;2023-03-01T15:54:32;10.30;99.90
14401;DHT22;7285;50.894;5.462;2023-03-01T15:57:00;10.80;99.90
14401;DHT22;7285;50.894;5.462;2023-03-01T15:59:27;10.80;99.90
14401;DHT22;7285;50.894;5.462;2023-03-01T16:01:55;10.70;99.90
14401;DHT22;7285;50.894;5.462;2023-03-01T16:04:22;9.50;99.90
14401;DHT22;7285;50.894;5.462;2023-03-01T16:06:50;9.20;99.90
14401;DHT22;7285;50.894;5.462;2023-03-01T16:09:20;8.40;99.90
14401;DHT22;7285;50.894;5.462;2023-03-01T16:11:48;8.20;99.90
14401;DHT22;7285;50.894;5.462;2023-03-01T16:14:15;7.80;99.90
14401;DHT22;7285;50.894;5.462;2023-03-01T16:16:42;7.60;99.90
14401;DHT22;7285;50.894;5.462;2023-03-01T16:19:11;7.50;99.90
14401;DHT22;7285;50.894;5.462;2023-03-01T16:21:39;7.30;99.90
14401;DHT22;7285;50.894;5.462;2023-03-01T16:24:06;7.10;99.90
14401;DHT22;7285;50.894;5.462;2023-03-01T16:26:33;7.00;99.90
14401;DHT22;7285;50.894;5.462;2023-03-01T16:29:01;6.80;99.90
14401;DHT22;7285;50.894;5.462;2023-03-01T16:31:28;6.70;99.90